Time;durP1;ratioP1;P1;durP2;ratioP2;P2;SDS_P1;SDS_P2;PMS_P1;PMS_P2;Temp;Humidity;BMP_temperature;BMP_pressure;BME280_temperature;BME280_humidity;BME280_pressure;Samples;Min_cycle;Max_cycle;Signal;HPM_P1;HPM_P2
2023/10/07 00:00:38;;;;;;;4.18;2.00;;;18.80;95.10;;;;;;6238985;23;20035;-66
2023/10/07 00:03:24;;;;;;;6.32;3.03;;;18.80;95.10;;;;;;6241549;23;20062;-66
2023/10/07 00:06:10;;;;;;;4.20;2.10;;;18.80;95.10;;;;;;6238626;23;20096;-65
2023/10/07 00:08:58;;;;;;;3.33;1.88;;;18.80;95.20;;;;;;6240761;23;20007;-65
2023/10/07 00:11:47;;;;;;;5.35;2.60;;;18.80;95.20;;;;;;6239119;23;20392;-65
2023/10/07 00:14:33;;;;;;;6.97;2.42;;;18.80;95.20;;;;;;6239811;23;20350;-66
2023/10/07 00:17:21;;;;;;;5.18;2.58;;;18.80;95.20;;;;;;6218190;23;20012;-65
2023/10/07 00:20:09;;;;;;;4.18;2.55;;;18.80;95.30;;;;;;6240106;23;20020;-65
2023/10/07 00:23:00;;;;;;;5.38;2.83;;;18.80;95.30;;;;;;6239375;23;20371;-66
2023/10/07 00:25:50;;;;;;;5.80;2.35;;;18.80;95.30;;;;;;6240735;23;20464;-66
2023/10/07 00:28:36;;;;;;;3.65;2.10;;;18.90;95.30;;;;;;6241506;23;20020;-65
2023/10/07 00:31:27;;;;;;;4.53;2.10;;;18.80;95.30;;;;;;6241008;23;20004;-65
2023/10/07 00:34:15;;;;;;;4.75;2.22;;;18.90;95.40;;;;;;6238847;23;20018;-66
2023/10/07 00:37:01;;;;;;;4.60;1.80;;;18.80;95.40;;;;;;6239128;23;20031;-66
2023/10/07 00:39:47;;;;;;;6.50;2.35;;;18.90;95.40;;;;;;6239959;23;20050;-66
2023/10/07 00:42:33;;;;;;;4.22;2.10;;;18.80;95.50;;;;;;6240241;23;20458;-66
2023/10/07 00:45:20;;;;;;;5.22;2.63;;;18.90;95.50;;;;;;6240327;23;20069;-66
2023/10/07 00:48:10;;;;;;;5.07;2.55;;;18.90;95.50;;;;;;6239930;23;20074;-66
2023/10/07 00:50:57;;;;;;;5.95;2.50;;;18.90;95.60;;;;;;6239558;23;20039;-66
2023/10/07 00:53:53;;;;;;;6.22;2.53;;;18.90;95.60;;;;;;6216659;23;20087;-66
2023/10/07 00:56:43;;;;;;;6.50;3.28;;;18.90;95.60;;;;;;6238269;22;20000;-67
2023/10/07 00:59:29;;;;;;;6.07;2.80;;;18.90;95.70;;;;;;6240733;23;20020;-67
2023/10/07 01:02:22;;;;;;;6.00;2.40;;;18.90;95.70;;;;;;6240914;23;20468;-66
2023/10/07 01:05:13;;;;;;;5.72;2.65;;;18.90;95.70;;;;;;6240552;23;20047;-67
2023/10/07 01:07:59;;;;;;;6.40;2.20;;;18.90;95.70;;;;;;6238439;23;20343;-66
2023/10/07 01:10:54;;;;;;;5.85;2.78;;;18.90;95.70;;;;;;6238528;23;20030;-65
2023/10/07 01:13:48;;;;;;;5.85;2.38;;;18.90;95.70;;;;;;6237258;23;20011;-65
2023/10/07 01:16:40;;;;;;;9.05;2.13;;;18.90;95.70;;;;;;6237334;23;20078;-66
2023/10/07 01:19:30;;;;;;;4.53;2.42;;;18.90;95.80;;;;;;6241175;23;20512;-66
2023/10/07 01:22:21;;;;;;;7.90;2.33;;;18.90;95.80;;;;;;6241508;23;20265;-65
2023/10/07 01:28:56;;;;;;;4.18;2.00;;;18.90;95.80;;;;;;6240884;23;20007;-66
2023/10/07 01:31:59;;;;;;;3.95;2.30;;;18.90;95.80;;;;;;6242075;23;20009;-65
2023/10/07 01:34:50;;;;;;;5.93;2.72;;;18.90;95.90;;;;;;6241174;23;20165;-65
2023/10/07 01:37:43;;;;;;;5.28;2.38;;;18.90;95.90;;;;;;6218566;23;20012;-66
2023/10/07 01:40:41;;;;;;;10.20;2.47;;;18.90;95.90;;;;;;6241668;23;20054;-66
2023/10/07 01:43:27;;;;;;;4.90;2.33;;;18.90;96.00;;;;;;6241535;23;20074;-66
2023/10/07 01:46:19;;;;;;;3.20;2.10;;;19.00;96.00;;;;;;6240503;23;20008;-65
2023/10/07 01:49:07;;;;;;;4.22;2.22;;;18.90;96.00;;;;;;6240747;23;20004;-65
2023/10/07 01:51:53;;;;;;;9.55;2.35;;;18.90;96.00;;;;;;6241336;23;20117;-65
2023/10/07 01:54:42;;;;;;;5.97;2.58;;;18.90;96.10;;;;;;6239809;23;20089;-64
2023/10/07 01:57:28;;;;;;;4.20;2.30;;;18.90;96.10;;;;;;6241504;22;20024;-65
2023/10/07 02:00:29;;;;;;;5.53;2.08;;;18.90;96.10;;;;;;6241870;23;20474;-65
2023/10/07 02:03:16;;;;;;;6.20;2.40;;;18.90;96.20;;;;;;6239812;23;20015;-65
2023/10/07 02:06:05;;;;;;;4.20;2.10;;;18.90;96.20;;;;;;6240338;23;20087;-65
2023/10/07 02:08:51;;;;;;;4.25;2.30;;;18.90;96.20;;;;;;6241620;23;20057;-65
2023/10/07 02:11:40;;;;;;;5.78;2.38;;;18.90;96.20;;;;;;6239588;23;20008;-66
2023/10/07 02:14:27;;;;;;;6.07;2.42;;;18.90;96.20;;;;;;6239763;23;20062;-66
2023/10/07 02:17:14;;;;;;;4.28;2.55;;;18.90;96.30;;;;;;6240574;23;20037;-65
2023/10/07 02:20:21;;;;;;;13.65;3.42;;;18.90;96.30;;;;;;6241512;23;20374;-65
2023/10/07 02:23:12;;;;;;;9.40;2.97;;;18.90;96.40;;;;;;6239843;23;20461;-65
2023/10/07 02:25:59;;;;;;;5.88;3.08;;;18.90;96.40;;;;;;6241679;23;20019;-65
2023/10/07 02:28:50;;;;;;;4.25;2.35;;;18.90;96.40;;;;;;6240763;23;20012;-66
2023/10/07 02:31:43;;;;;;;5.85;2.55;;;18.90;96.40;;;;;;6240634;23;20012;-66
2023/10/07 02:34:29;;;;;;;4.30;2.55;;;18.90;96.50;;;;;;6240726;23;20016;-66
2023/10/07 02:37:15;;;;;;;4.78;2.45;;;18.90;96.50;;;;;;6241488;23;20015;-70
2023/10/07 02:40:19;;;;;;;7.88;2.33;;;18.90;96.50;;;;;;6241196;23;20016;-70
2023/10/07 02:43:08;;;;;;;9.18;2.95;;;18.90;96.60;;;;;;6239976;23;20303;-70
2023/10/07 02:45:59;;;;;;;4.82;2.58;;;18.80;96.60;;;;;;6239666;23;20039;-71
2023/10/07 02:48:45;;;;;;;6.82;2.80;;;18.80;96.60;;;;;;6241113;23;20090;-70
2023/10/07 02:51:33;;;;;;;5.68;3.05;;;18.80;96.70;;;;;;6241457;23;20012;-70
2023/10/07 02:54:20;;;;;;;5.60;2.63;;;18.80;96.70;;;;;;6240598;23;20012;-71
2023/10/07 03:00:00;;;;;;;6.43;2.30;;;18.80;96.80;;;;;;6241037;23;20450;-71
2023/10/07 03:02:49;;;;;;;8.80;3.03;;;18.80;96.90;;;;;;6240831;23;20442;-71
2023/10/07 03:06:00;;;;;;;6.68;2.78;;;18.80;96.90;;;;;;6241067;23;20032;-71
2023/10/07 03:11:48;;;;;;;5.03;2.60;;;18.80;97.00;;;;;;6240988;23;20013;-70
2023/10/07 03:14:36;;;;;;;7.90;2.80;;;18.80;97.10;;;;;;6240463;23;20466;-70
2023/10/07 03:17:32;;;;;;;6.93;2.95;;;18.80;97.10;;;;;;6240216;23;20058;-70
2023/10/07 03:20:28;;;;;;;5.18;2.60;;;18.80;97.20;;;;;;6240605;23;20024;-70
2023/10/07 03:23:15;;;;;;;5.65;2.42;;;18.80;97.20;;;;;;6240665;23;20469;-71
2023/10/07 03:28:53;;;;;;;6.55;3.28;;;18.80;97.30;;;;;;6240445;23;20341;-70
2023/10/07 03:34:26;;;;;;;7.15;3.35;;;18.80;97.30;;;;;;6241479;23;20083;-71
2023/10/07 03:40:35;;;;;;;7.10;3.00;;;18.70;97.40;;;;;;6239659;23;20442;-71
2023/10/07 03:43:10;;;;;;;5.40;2.58;;;18.80;97.50;;;;;;6242449;23;20493;-70
2023/10/07 03:45:57;;;;;;;4.07;2.42;;;18.80;97.50;;;;;;6239816;23;20425;-70
2023/10/07 03:48:53;;;;;;;3.92;2.22;;;18.80;97.50;;;;;;6239926;23;20009;-70
2023/10/07 03:51:39;;;;;;;4.40;2.60;;;18.80;97.60;;;;;;6240455;23;20012;-70
2023/10/07 03:54:29;;;;;;;6.18;2.72;;;18.80;97.60;;;;;;6238978;23;20016;-70
2023/10/07 03:57:15;;;;;;;4.70;2.55;;;18.80;97.60;;;;;;6239971;22;20477;-71
2023/10/07 04:00:01;;;;;;;5.40;2.30;;;18.80;97.60;;;;;;6239712;23;20020;-70
2023/10/07 04:02:49;;;;;;;5.80;2.58;;;18.80;97.60;;;;;;6239503;23;20354;-70
2023/10/07 04:05:38;;;;;;;4.85;3.17;;;18.80;97.60;;;;;;6239882;23;20091;-70
2023/10/07 04:08:24;;;;;;;4.00;2.22;;;18.80;97.60;;;;;;6238964;23;20471;-70
2023/10/07 04:11:19;;;;;;;5.32;2.90;;;18.80;97.60;;;;;;6238694;23;20157;-71
2023/10/07 04:14:27;;;;;;;4.45;2.20;;;18.80;97.70;;;;;;6238368;23;20008;-71
2023/10/07 04:17:13;;;;;;;5.88;2.55;;;18.70;97.70;;;;;;6241674;23;20430;-71
2023/10/07 04:20:18;;;;;;;5.05;2.03;;;18.70;97.70;;;;;;6237943;23;20102;-70
2023/10/07 04:23:04;;;;;;;7.03;2.75;;;18.70;97.70;;;;;;6238120;23;20442;-71
2023/10/07 04:26:04;;;;;;;5.25;2.58;;;18.70;97.70;;;;;;6237863;23;20015;-71
2023/10/07 04:28:53;;;;;;;8.82;3.65;;;18.70;97.70;;;;;;6239260;23;20347;-71
2023/10/07 04:31:39;;;;;;;5.32;2.70;;;18.70;97.80;;;;;;6239282;23;20059;-69
2023/10/07 04:34:26;;;;;;;5.32;2.75;;;18.70;97.80;;;;;;6237632;23;20035;-71
2023/10/07 04:37:14;;;;;;;8.18;3.45;;;18.70;97.80;;;;;;6238369;23;20047;-70
2023/10/07 04:43:25;;;;;;;4.93;2.80;;;18.60;97.90;;;;;;6240322;23;20091;-70
2023/10/07 04:46:22;;;;;;;6.25;3.17;;;18.70;97.90;;;;;;6240193;23;20345;-70
2023/10/07 04:49:14;;;;;;;4.82;2.53;;;18.70;97.90;;;;;;6216614;23;20016;-70
2023/10/07 04:52:04;;;;;;;4.25;2.47;;;18.60;97.90;;;;;;6238789;23;20363;-69
2023/10/07 04:54:52;;;;;;;6.68;2.72;;;18.60;98.00;;;;;;6239302;23;20034;-69
2023/10/07 05:03:16;;;;;;;11.07;2.83;;;18.60;98.00;;;;;;6238324;23;20531;-69
2023/10/07 05:06:04;;;;;;;5.57;2.65;;;18.60;98.10;;;;;;6237952;23;20012;-70
2023/10/07 05:08:51;;;;;;;12.48;3.10;;;18.60;98.20;;;;;;6238764;23;20532;-71
2023/10/07 05:11:42;;;;;;;7.88;2.75;;;18.60;98.20;;;;;;6241550;23;20028;-68
2023/10/07 05:14:28;;;;;;;4.65;2.63;;;18.60;98.40;;;;;;6239139;23;20008;-69
2023/10/07 05:17:16;;;;;;;5.90;3.30;;;18.60;98.50;;;;;;6239027;23;20016;-69
2023/10/07 05:20:26;;;;;;;7.53;3.20;;;18.60;98.60;;;;;;6238203;23;20080;-69
2023/10/07 05:23:14;;;;;;;5.03;2.85;;;18.50;98.70;;;;;;6238739;23;20008;-69
2023/10/07 05:26:03;;;;;;;5.03;2.65;;;18.50;98.70;;;;;;6239667;23;20469;-70
2023/10/07 05:28:49;;;;;;;4.75;2.67;;;18.50;98.80;;;;;;6239473;23;20139;-69
2023/10/07 05:31:38;;;;;;;5.43;3.47;;;18.50;98.80;;;;;;6239153;23;20353;-69
2023/10/07 05:34:33;;;;;;;5.22;2.80;;;18.50;98.80;;;;;;6239693;23;20083;-69
2023/10/07 05:37:22;;;;;;;7.40;2.80;;;18.50;98.80;;;;;;6239227;23;20346;-70
2023/10/07 05:40:13;;;;;;;5.03;2.95;;;18.60;98.90;;;;;;6239041;23;20024;-68
2023/10/07 05:43:00;;;;;;;9.70;2.78;;;18.50;98.90;;;;;;6236648;23;20004;-68
2023/10/07 05:45:45;;;;;;;6.68;2.30;;;18.50;98.90;;;;;;6238670;23;20390;-68
2023/10/07 05:48:31;;;;;;;3.78;2.25;;;18.60;98.90;;;;;;6237729;23;20017;-67
2023/10/07 05:51:17;;;;;;;5.45;2.40;;;18.60;98.90;;;;;;6238252;23;20434;-65
2023/10/07 05:54:05;;;;;;;6.22;2.90;;;18.60;98.90;;;;;;6237511;23;20008;-68
2023/10/07 05:56:53;;;;;;;5.20;2.88;;;18.60;98.90;;;;;;6241018;22;20042;-67
2023/10/07 05:59:43;;;;;;;9.75;3.10;;;18.60;98.80;;;;;;6236507;23;20020;-66
2023/10/07 06:02:30;;;;;;;4.35;2.75;;;18.60;99.00;;;;;;6238544;23;20012;-66
2023/10/07 06:05:19;;;;;;;6.13;3.35;;;18.60;98.80;;;;;;6241901;23;20016;-64
2023/10/07 06:08:05;;;;;;;10.88;3.30;;;18.50;98.80;;;;;;6239891;23;20442;-65
2023/10/07 06:10:53;;;;;;;6.32;3.05;;;18.50;98.90;;;;;;6242707;23;20074;-65
2023/10/07 06:13:40;;;;;;;7.35;3.20;;;18.50;98.90;;;;;;6236874;23;20560;-63
2023/10/07 06:16:26;;;;;;;5.82;2.78;;;18.50;98.90;;;;;;6239663;23;20338;-66
2023/10/07 06:19:13;;;;;;;6.20;3.00;;;18.50;98.90;;;;;;6239869;23;20357;-66
2023/10/07 06:21:59;;;;;;;6.82;2.72;;;18.50;99.00;;;;;;6217973;23;20050;-67
2023/10/07 06:24:52;;;;;;;6.82;2.72;;;18.50;99.00;;;;;;6239737;23;20019;-66
2023/10/07 06:27:42;;;;;;;5.25;2.53;;;18.50;99.10;;;;;;6240965;23;20095;-66
2023/10/07 06:30:28;;;;;;;4.47;2.50;;;18.50;99.20;;;;;;6237191;23;20433;-66
2023/10/07 06:33:13;;;;;;;6.05;2.90;;;18.50;99.20;;;;;;6240941;23;20484;-67
2023/10/07 06:35:59;;;;;;;7.45;3.25;;;18.60;99.40;;;;;;6240928;23;20005;-66
2023/10/07 06:38:46;;;;;;;4.10;2.60;;;18.50;99.50;;;;;;6240553;23;20020;-66
2023/10/07 06:41:32;;;;;;;5.75;2.75;;;18.50;99.60;;;;;;6240871;23;20040;-66
2023/10/07 06:44:18;;;;;;;5.35;2.53;;;18.50;99.60;;;;;;6242088;23;20091;-67
2023/10/07 06:47:07;;;;;;;7.45;2.83;;;18.50;99.70;;;;;;6240447;23;20090;-67
2023/10/07 06:49:56;;;;;;;8.77;3.13;;;18.50;99.80;;;;;;6240985;23;20008;-67
2023/10/07 06:52:43;;;;;;;6.05;3.67;;;18.50;99.90;;;;;;6240313;23;20008;-67
2023/10/07 06:55:36;;;;;;;5.78;3.25;;;18.40;99.90;;;;;;6241041;22;20334;-66
2023/10/07 06:58:22;;;;;;;7.50;3.10;;;18.40;99.90;;;;;;6240670;23;20020;-66
2023/10/07 07:01:22;;;;;;;5.18;3.42;;;18.40;99.90;;;;;;6241476;23;20043;-68
2023/10/07 07:04:14;;;;;;;6.32;3.00;;;18.40;99.90;;;;;;6238908;23;20087;-68
2023/10/07 07:07:16;;;;;;;6.47;2.75;;;18.40;99.90;;;;;;6238931;23;20016;-69
2023/10/07 07:10:07;;;;;;;5.45;3.05;;;18.40;99.90;;;;;;6238135;23;20015;-68
2023/10/07 07:13:05;;;;;;;5.28;2.70;;;18.40;99.90;;;;;;6240292;23;20090;-68
2023/10/07 07:16:06;;;;;;;6.97;3.28;;;18.40;99.90;;;;;;6240237;23;20016;-68
2023/10/07 07:18:52;;;;;;;5.20;3.30;;;18.40;99.90;;;;;;6240251;23;20454;-69
2023/10/07 07:21:40;;;;;;;8.85;3.40;;;18.40;99.90;;;;;;6239295;23;20012;-69
2023/10/07 07:24:29;;;;;;;7.43;3.58;;;18.40;99.90;;;;;;6240508;23;20374;-69
2023/10/07 07:27:17;;;;;;;4.68;3.35;;;18.40;99.90;;;;;;6238955;23;20016;-69
2023/10/07 07:30:04;;;;;;;11.23;4.63;;;18.40;99.90;;;;;;6238054;23;20008;-69
2023/10/07 07:32:55;;;;;;;5.07;3.30;;;18.40;99.90;;;;;;6239252;23;20015;-69
2023/10/07 07:35:43;;;;;;;5.60;3.60;;;18.40;99.90;;;;;;6239561;23;20000;-68
2023/10/07 07:38:43;;;;;;;4.15;3.13;;;18.40;99.90;;;;;;6241114;23;20462;-68
2023/10/07 07:41:37;;;;;;;5.93;3.22;;;18.40;99.90;;;;;;6239376;23;20024;-69
2023/10/07 07:44:33;;;;;;;6.13;3.37;;;18.40;99.90;;;;;;6239701;23;20027;-68
2023/10/07 07:47:19;;;;;;;7.93;3.30;;;18.50;99.90;;;;;;6241184;23;20227;-69
2023/10/07 07:50:08;;;;;;;9.60;3.85;;;18.50;99.90;;;;;;6239641;23;20043;-69
2023/10/07 07:52:53;;;;;;;8.45;3.50;;;18.50;99.90;;;;;;6240364;23;20351;-68
2023/10/07 07:55:45;;;;;;;4.38;3.00;;;18.50;99.90;;;;;;6239989;22;20066;-69
2023/10/07 07:58:31;;;;;;;4.63;2.67;;;18.50;99.90;;;;;;6239413;23;20417;-68
2023/10/07 08:01:18;;;;;;;7.50;3.20;;;18.50;99.90;;;;;;6239348;23;20055;-69
2023/10/07 08:04:09;;;;;;;4.55;3.00;;;18.50;99.90;;;;;;6239118;23;20392;-69
2023/10/07 08:06:55;;;;;;;7.18;3.25;;;18.60;99.90;;;;;;6240702;23;20020;-69
2023/10/07 08:09:41;;;;;;;5.57;2.97;;;18.60;99.90;;;;;;6238927;23;20449;-68
2023/10/07 08:12:36;;;;;;;10.50;3.88;;;18.70;99.90;;;;;;6239568;23;20012;-67
2023/10/07 08:15:23;;;;;;;4.97;3.10;;;18.70;99.90;;;;;;6239196;23;20081;-67
2023/10/07 08:18:09;;;;;;;5.18;2.97;;;18.70;99.90;;;;;;6239946;23;20039;-68
2023/10/07 08:21:10;;;;;;;5.47;2.65;;;18.70;99.90;;;;;;6239337;23;20026;-68
2023/10/07 08:24:01;;;;;;;6.10;3.13;;;18.80;99.90;;;;;;6238607;23;20358;-68
2023/10/07 08:26:59;;;;;;;3.50;2.42;;;18.80;99.90;;;;;;6238855;23;20012;-69
2023/10/07 08:29:45;;;;;;;6.50;3.15;;;18.80;99.90;;;;;;6238483;23;20004;-67
2023/10/07 08:32:46;;;;;;;4.45;2.90;;;18.80;99.90;;;;;;6236247;23;20012;-68
2023/10/07 08:35:34;;;;;;;5.68;2.70;;;18.80;99.90;;;;;;6240482;23;20009;-68
2023/10/07 08:38:37;;;;;;;5.22;2.95;;;18.80;99.90;;;;;;6239525;23;20091;-68
2023/10/07 08:41:26;;;;;;;4.82;2.47;;;18.80;99.90;;;;;;6239332;23;20042;-66
2023/10/07 08:44:15;;;;;;;6.50;4.07;;;18.80;99.90;;;;;;6238773;23;20090;-73
2023/10/07 08:47:05;;;;;;;5.63;3.22;;;18.80;99.90;;;;;;6239390;23;20023;-67
2023/10/07 08:49:56;;;;;;;6.13;2.97;;;18.80;99.90;;;;;;6239101;23;20331;-69
2023/10/07 08:52:44;;;;;;;6.53;2.78;;;18.70;99.90;;;;;;6238945;23;20012;-70
2023/10/07 08:55:31;;;;;;;6.45;2.97;;;18.70;99.90;;;;;;6238925;22;20063;-68
2023/10/07 08:58:22;;;;;;;3.38;2.55;;;18.70;99.90;;;;;;6238905;23;20027;-68
2023/10/07 09:01:17;;;;;;;6.97;3.10;;;18.70;99.90;;;;;;6239697;23;20023;-69
2023/10/07 09:04:07;;;;;;;3.63;2.45;;;18.80;99.90;;;;;;6239049;23;20000;-68
2023/10/07 09:06:53;;;;;;;5.57;3.22;;;18.80;99.90;;;;;;6238412;23;20012;-66
2023/10/07 09:09:43;;;;;;;4.50;3.13;;;18.90;99.90;;;;;;6237282;23;20008;-68
2023/10/07 09:12:31;;;;;;;4.65;3.05;;;18.90;99.90;;;;;;6238843;23;20012;-67
2023/10/07 09:15:26;;;;;;;7.25;3.22;;;19.00;99.90;;;;;;6239741;23;20087;-67
2023/10/07 09:18:17;;;;;;;3.65;2.58;;;19.00;99.90;;;;;;6236385;23;20414;-67
2023/10/07 09:21:09;;;;;;;5.88;2.58;;;19.00;99.90;;;;;;6238693;23;20095;-68
2023/10/07 09:24:02;;;;;;;4.65;2.78;;;19.00;99.90;;;;;;6239572;23;20016;-67
2023/10/07 09:26:56;;;;;;;9.15;3.35;;;19.00;99.90;;;;;;6239611;23;20012;-67
2023/10/07 09:29:49;;;;;;;9.52;2.90;;;19.00;99.90;;;;;;6238775;23;20013;-67
2023/10/07 09:32:37;;;;;;;5.72;3.13;;;19.00;99.90;;;;;;6240040;23;20008;-68
2023/10/07 09:35:25;;;;;;;6.63;3.30;;;19.00;99.90;;;;;;6240490;23;20008;-68
2023/10/07 09:38:33;;;;;;;5.65;3.03;;;19.00;99.90;;;;;;6239767;23;20036;-68
2023/10/07 09:44:26;;;;;;;6.07;3.08;;;19.10;99.90;;;;;;6241715;23;20031;-67
2023/10/07 09:47:21;;;;;;;7.97;3.83;;;19.10;99.90;;;;;;6240046;23;20009;-67
2023/10/07 09:50:25;;;;;;;4.55;3.17;;;19.10;99.90;;;;;;6239887;23;20067;-67
2023/10/07 09:53:17;;;;;;;5.85;3.47;;;19.00;99.90;;;;;;6241826;23;20153;-67
2023/10/07 09:56:44;;;;;;;4.65;3.33;;;19.10;99.90;;;;;;6241594;22;20018;-67
2023/10/07 09:59:58;;;;;;;6.43;4.15;;;19.10;99.90;;;;;;6240317;23;20064;-67
2023/10/07 10:03:04;;;;;;;6.20;3.85;;;19.10;99.90;;;;;;6243198;23;20008;-67
2023/10/07 10:05:58;;;;;;;7.38;3.75;;;19.10;99.90;;;;;;6239242;23;20091;-67
2023/10/07 10:08:57;;;;;;;5.80;3.97;;;19.10;99.90;;;;;;6240821;23;20031;-68
2023/10/07 10:12:17;;;;;;;8.18;4.47;;;19.00;99.90;;;;;;6241211;23;20009;-67
2023/10/07 10:18:41;;;;;;;7.18;4.35;;;19.00;99.90;;;;;;6240166;23;20062;-68
2023/10/07 10:21:23;;;;;;;11.18;4.40;;;19.10;99.90;;;;;;6241851;23;20020;-69
2023/10/07 10:24:18;;;;;;;6.80;4.07;;;19.10;99.90;;;;;;6240867;23;20066;-67
2023/10/07 10:27:04;;;;;;;;;;;19.00;99.90;;;;;;6240995;23;20008;-68
2023/10/07 10:30:04;;;;;;;9.82;5.03;;;19.00;99.90;;;;;;6240141;23;19907;-68
2023/10/07 10:33:00;;;;;;;7.40;4.63;;;19.00;99.90;;;;;;6242037;23;20043;-68
2023/10/07 10:35:57;;;;;;;9.10;5.35;;;19.00;99.90;;;;;;6240773;23;20095;-68
2023/10/07 10:38:45;;;;;;;9.55;4.40;;;19.00;99.90;;;;;;6241177;23;20008;-67
2023/10/07 10:41:32;;;;;;;11.18;6.03;;;19.10;99.90;;;;;;6240384;23;20012;-68
2023/10/07 10:44:20;;;;;;;9.70;4.65;;;19.00;99.90;;;;;;6241664;23;20438;-68
2023/10/07 10:47:07;;;;;;;8.95;5.43;;;19.00;99.90;;;;;;6242757;23;20342;-68
2023/10/07 10:49:55;;;;;;;6.78;5.07;;;19.00;99.90;;;;;;6241416;23;20016;-66
2023/10/07 10:52:41;;;;;;;8.40;5.45;;;19.10;99.90;;;;;;6241914;23;20005;-68
2023/10/07 10:55:34;;;;;;;11.32;5.38;;;19.10;99.90;;;;;;6241744;22;20086;-68
2023/10/07 10:58:21;;;;;;;8.98;5.72;;;19.10;99.90;;;;;;6239379;23;20016;-67
2023/10/07 11:01:07;;;;;;;6.82;5.18;;;19.10;99.90;;;;;;6241459;23;20069;-69
2023/10/07 11:03:53;;;;;;;6.97;5.40;;;19.10;99.90;;;;;;6240056;23;20016;-68
2023/10/07 11:06:40;;;;;;;8.85;5.88;;;19.10;99.90;;;;;;6239341;23;20393;-69
2023/10/07 11:09:34;;;;;;;7.43;5.30;;;19.10;99.90;;;;;;6239605;23;20012;-66
2023/10/07 11:12:26;;;;;;;9.20;5.60;;;19.10;99.90;;;;;;6240307;23;20016;-68
2023/10/07 11:15:15;;;;;;;9.60;6.07;;;19.10;99.90;;;;;;6239927;23;20012;-67
2023/10/07 11:18:15;;;;;;;8.38;5.03;;;19.10;99.90;;;;;;6238285;23;20097;-68
2023/10/07 11:21:02;;;;;;;8.27;5.78;;;19.10;99.90;;;;;;6238341;23;20024;-68
2023/10/07 11:23:50;;;;;;;7.32;5.63;;;19.10;99.90;;;;;;6240251;23;20008;-69
2023/10/07 11:26:36;;;;;;;8.40;5.88;;;19.10;99.90;;;;;;6240880;23;20023;-68
2023/10/07 11:29:29;;;;;;;10.43;4.95;;;19.10;99.90;;;;;;6239276;23;20035;-66
2023/10/07 11:32:15;;;;;;;8.63;5.68;;;19.10;99.90;;;;;;6241028;23;20382;-65
2023/10/07 11:35:02;;;;;;;7.68;5.82;;;19.10;99.90;;;;;;6238506;23;20019;-66
2023/10/07 11:37:49;;;;;;;7.28;5.72;;;19.10;99.90;;;;;;6239809;23;20341;-65
2023/10/07 11:40:35;;;;;;;8.10;5.63;;;19.10;99.90;;;;;;6241447;23;20038;-67
2023/10/07 11:43:24;;;;;;;7.63;5.90;;;19.10;99.90;;;;;;6238735;23;20027;-66
2023/10/07 11:46:13;;;;;;;7.50;5.53;;;19.10;99.90;;;;;;6238768;23;20170;-65
2023/10/07 11:48:59;;;;;;;10.07;5.82;;;19.20;99.90;;;;;;6239039;23;20342;-66
2023/10/07 11:51:45;;;;;;;9.07;6.07;;;19.20;99.90;;;;;;6241370;23;20044;-66
2023/10/07 11:54:34;;;;;;;8.70;5.30;;;19.20;99.90;;;;;;6237210;23;20031;-66
2023/10/07 11:57:21;;;;;;;8.43;5.68;;;19.20;99.90;;;;;;6242303;22;20111;-66
2023/10/07 12:00:22;;;;;;;10.63;6.10;;;19.20;99.90;;;;;;6238203;23;20508;-66
2023/10/07 12:03:08;;;;;;;9.65;6.07;;;19.20;99.90;;;;;;6238611;23;20007;-66
2023/10/07 12:05:54;;;;;;;8.77;6.03;;;19.20;99.90;;;;;;6237793;23;20094;-67
2023/10/07 12:08:40;;;;;;;9.48;5.88;;;19.10;99.90;;;;;;6239032;23;20004;-66
2023/10/07 12:11:26;;;;;;;10.02;6.32;;;19.20;99.90;;;;;;6238846;23;20009;-66
2023/10/07 12:14:13;;;;;;;12.55;6.22;;;19.20;99.90;;;;;;6238189;23;20016;-66
2023/10/07 12:16:59;;;;;;;11.57;6.47;;;19.10;99.90;;;;;;6239666;23;20001;-66
2023/10/07 12:19:45;;;;;;;10.23;6.55;;;19.10;99.90;;;;;;6238431;23;20012;-65
2023/10/07 12:22:31;;;;;;;10.32;7.05;;;19.00;99.90;;;;;;6239962;23;20046;-66
2023/10/07 12:25:18;;;;;;;9.15;7.05;;;19.00;99.90;;;;;;6241355;23;20013;-65
2023/10/07 12:28:08;;;;;;;10.23;6.57;;;18.90;99.90;;;;;;6239229;23;20351;-65
2023/10/07 12:30:54;;;;;;;10.23;6.97;;;18.90;99.90;;;;;;6240280;23;20439;-66
2023/10/07 12:33:40;;;;;;;12.60;6.90;;;18.90;99.90;;;;;;6235769;23;20801;-66
2023/10/07 12:36:26;;;;;;;9.52;5.85;;;18.90;99.90;;;;;;6239747;23;20008;-64
2023/10/07 12:39:14;;;;;;;9.82;6.45;;;18.80;99.90;;;;;;6239921;23;20069;-65
2023/10/07 12:42:01;;;;;;;10.30;6.82;;;18.80;99.90;;;;;;6239428;23;20458;-65
2023/10/07 12:44:47;;;;;;;8.80;6.65;;;18.80;99.90;;;;;;6238783;23;20008;-66
2023/10/07 12:47:34;;;;;;;8.85;6.35;;;18.80;99.90;;;;;;6217723;23;20402;-66
2023/10/07 12:50:23;;;;;;;9.20;5.82;;;18.80;99.90;;;;;;6238476;23;20516;-65
2023/10/07 12:53:10;;;;;;;12.20;6.30;;;18.80;99.90;;;;;;6238379;23;20464;-67
2023/10/07 12:55:56;;;;;;;10.52;6.65;;;18.80;99.90;;;;;;6239725;22;20015;-67
2023/10/07 12:58:42;;;;;;;13.55;6.22;;;18.80;99.90;;;;;;6239061;23;20469;-66
2023/10/07 13:01:31;;;;;;;8.35;5.82;;;18.80;99.90;;;;;;6241399;23;20023;-67
2023/10/07 13:04:25;;;;;;;9.65;6.20;;;18.80;99.90;;;;;;6239845;23;20012;-66
2023/10/07 13:07:11;;;;;;;10.45;5.38;;;18.90;99.90;;;;;;6238430;23;20008;-68
2023/10/07 13:09:59;;;;;;;9.25;5.50;;;18.80;99.90;;;;;;6239189;23;20091;-68
2023/10/07 13:12:46;;;;;;;8.93;5.15;;;18.80;99.90;;;;;;6239633;23;20011;-68
2023/10/07 13:15:34;;;;;;;10.00;6.07;;;18.90;99.90;;;;;;6241789;23;20054;-67
2023/10/07 13:18:20;;;;;;;7.70;5.50;;;18.90;99.90;;;;;;6241189;23;20476;-67
2023/10/07 13:21:19;;;;;;;8.75;6.32;;;18.90;99.90;;;;;;6239462;23;20454;-67
2023/10/07 13:24:07;;;;;;;8.98;5.40;;;18.90;99.90;;;;;;6240323;23;20011;-66
2023/10/07 13:26:53;;;;;;;11.32;6.35;;;18.90;99.90;;;;;;6241257;23;20018;-66
2023/10/07 13:29:40;;;;;;;10.13;5.45;;;18.90;99.90;;;;;;6242537;23;20011;-66
2023/10/07 13:32:27;;;;;;;13.55;6.40;;;19.00;99.90;;;;;;6240498;23;20012;-65
2023/10/07 13:35:15;;;;;;;10.40;5.45;;;19.00;99.90;;;;;;6218204;23;20009;-64
2023/10/07 13:38:01;;;;;;;13.57;6.00;;;19.00;99.90;;;;;;6242984;23;20012;-64
2023/10/07 13:40:47;;;;;;;10.98;5.47;;;19.00;99.90;;;;;;6243119;23;20020;-67
2023/10/07 13:43:33;;;;;;;9.05;6.03;;;19.00;99.90;;;;;;6240076;23;20043;-65
2023/10/07 13:46:19;;;;;;;8.15;4.97;;;19.10;99.90;;;;;;6239603;23;20012;-67
2023/10/07 13:49:08;;;;;;;11.57;6.32;;;19.00;99.90;;;;;;6239659;23;20004;-66
2023/10/07 13:52:05;;;;;;;8.93;5.25;;;19.10;99.90;;;;;;6240286;23;20012;-65
2023/10/07 13:55:14;;;;;;;8.90;5.35;;;19.10;99.90;;;;;;6239064;23;20012;-66
2023/10/07 13:57:56;;;;;;;10.18;5.80;;;19.10;99.90;;;;;;6238536;23;20358;-66
2023/10/07 14:00:47;;;;;;;12.48;6.22;;;19.10;99.90;;;;;;6236109;23;20031;-65
2023/10/07 14:03:39;;;;;;;13.02;5.75;;;19.20;99.90;;;;;;6240179;23;20345;-66
2023/10/07 14:06:27;;;;;;;10.18;5.85;;;19.20;99.90;;;;;;6236986;23;20155;-65
2023/10/07 14:09:24;;;;;;;14.02;5.15;;;19.20;99.90;;;;;;6237109;23;20024;-66
2023/10/07 14:12:10;;;;;;;9.82;6.07;;;19.20;99.90;;;;;;6240349;23;20090;-65
2023/10/07 14:15:03;;;;;;;10.13;5.30;;;19.30;99.90;;;;;;6236431;23;20107;-66
2023/10/07 14:17:49;;;;;;;6.70;4.45;;;19.30;99.90;;;;;;6241107;23;20462;-65
2023/10/07 14:20:36;;;;;;;7.88;4.90;;;19.30;99.90;;;;;;6238537;23;20024;-65
2023/10/07 14:23:23;;;;;;;8.85;5.43;;;19.40;99.90;;;;;;6237921;23;20395;-65
2023/10/07 14:26:12;;;;;;;7.47;4.75;;;19.40;99.90;;;;;;6238295;23;20019;-62
2023/10/07 14:29:02;;;;;;;7.82;4.88;;;19.50;99.90;;;;;;6235188;23;20008;-66
2023/10/07 14:31:48;;;;;;;9.20;4.90;;;19.50;99.90;;;;;;6238773;23;20000;-65
2023/10/07 14:34:34;;;;;;;8.05;4.90;;;19.40;99.90;;;;;;6239709;23;20005;-65
2023/10/07 14:37:21;;;;;;;8.75;5.32;;;19.40;99.90;;;;;;6237937;23;20090;-65
2023/10/07 14:40:10;;;;;;;8.40;5.18;;;19.40;99.90;;;;;;6239114;23;20020;-65
2023/10/07 14:42:56;;;;;;;8.63;5.03;;;19.30;99.90;;;;;;6237086;23;20178;-65
2023/10/07 14:45:49;;;;;;;8.45;5.22;;;19.30;99.90;;;;;;6238698;23;20012;-65
2023/10/07 14:48:36;;;;;;;8.57;6.50;;;19.20;99.90;;;;;;6240676;23;20016;-65
2023/10/07 14:51:22;;;;;;;7.95;5.45;;;19.20;99.90;;;;;;6238635;23;20012;-65
2023/10/07 14:54:08;;;;;;;9.15;5.45;;;19.10;99.90;;;;;;6239166;23;20062;-65
2023/10/07 14:56:54;;;;;;;7.80;5.65;;;19.00;99.90;;;;;;6191359;22;1081059;-66
2023/10/07 14:59:42;;;;;;;9.02;5.90;;;18.90;99.90;;;;;;6238703;23;20017;-65
2023/10/07 15:02:28;;;;;;;11.00;6.00;;;18.80;99.90;;;;;;6241571;23;20012;-66
2023/10/07 15:05:16;;;;;;;7.93;4.63;;;18.80;99.90;;;;;;6240913;23;20016;-66
2023/10/07 15:08:03;;;;;;;7.88;4.55;;;18.80;99.90;;;;;;6238794;23;20004;-66
2023/10/07 15:10:49;;;;;;;5.35;3.35;;;18.70;99.90;;;;;;6239153;23;20015;-65
2023/10/07 15:13:35;;;;;;;6.13;3.53;;;18.60;99.90;;;;;;6239962;23;20016;-65
2023/10/07 15:16:21;;;;;;;5.68;3.08;;;18.50;99.90;;;;;;6236865;23;20438;-65